Time;durP1;ratioP1;P1;durP2;ratioP2;P2;SDS_P1;SDS_P2;PMS_P1;PMS_P2;Temp;Humidity;BMP_temperature;BMP_pressure;BME280_temperature;BME280_humidity;BME280_pressure;Samples;Min_cycle;Max_cycle;Signal;HPM_P1;HPM_P2
2023/12/27 00:01:04;;;;;;;19.13;10.75;;;;;;;2.16;100.00;101971.28;5071560;28;20802;-50
2023/12/27 00:03:32;;;;;;;19.90;10.63;;;;;;;2.15;100.00;101973.00;5071189;28;20063;-47
2023/12/27 00:06:00;;;;;;;20.50;10.50;;;;;;;2.15;100.00;101959.19;5069925;28;20052;-47
2023/12/27 00:08:31;;;;;;;18.55;10.10;;;;;;;2.13;100.00;101977.38;5067652;28;20048;-48
2023/12/27 00:11:01;;;;;;;15.35;8.98;;;;;;;2.13;100.00;101967.00;5070753;28;20048;-48
2023/12/27 00:13:30;;;;;;;18.17;9.35;;;;;;;2.13;100.00;101972.19;5071532;28;20063;-47
2023/12/27 00:15:58;;;;;;;18.63;9.52;;;;;;;2.10;100.00;101964.44;5070255;28;20388;-47
2023/12/27 00:18:26;;;;;;;16.65;8.52;;;;;;;2.08;100.00;101965.31;5070290;28;20130;-48
2023/12/27 00:20:54;;;;;;;16.30;8.98;;;;;;;2.06;100.00;101967.94;5071603;28;20044;-45
2023/12/27 00:23:22;;;;;;;14.68;8.07;;;;;;;2.03;100.00;101963.66;5071574;28;20464;-45
2023/12/27 00:25:50;;;;;;;18.80;8.27;;;;;;;2.02;100.00;101967.09;5067900;28;20052;-45
2023/12/27 00:28:20;;;;;;;15.45;8.27;;;;;;;2.01;100.00;101956.75;5067727;28;20052;-45
2023/12/27 00:30:51;;;;;;;14.18;7.55;;;;;;;1.98;100.00;101960.25;5071614;28;20395;-49
2023/12/27 00:33:19;;;;;;;16.65;8.25;;;;;;;1.96;100.00;101949.00;5071498;28;20068;-46
2023/12/27 00:35:48;;;;;;;15.68;7.65;;;;;;;1.95;100.00;101954.22;5071555;28;20512;-46
2023/12/27 00:38:16;;;;;;;14.82;7.45;;;;;;;1.92;100.00;101951.66;5071447;28;20048;-47
2023/12/27 00:40:44;;;;;;;14.35;8.40;;;;;;;1.91;100.00;101962.91;5071784;28;20135;-45
2023/12/27 00:43:15;;;;;;;14.05;6.82;;;;;;;1.86;100.00;101963.81;5071312;28;20049;-45
2023/12/27 00:45:45;;;;;;;14.30;7.18;;;;;;;1.89;100.00;101962.09;5071231;28;20491;-46
2023/12/27 00:48:13;;;;;;;17.20;7.97;;;;;;;1.87;100.00;101964.69;5071466;28;20048;-47
2023/12/27 00:50:41;;;;;;;13.43;7.60;;;;;;;1.84;100.00;101950.03;5071054;28;20056;-45
2023/12/27 00:53:09;;;;;;;18.73;8.15;;;;;;;1.82;100.00;101954.34;5071104;28;20060;-46
2023/12/27 00:55:38;;;;;;;14.35;7.53;;;;;;;1.80;100.00;101963.03;5071060;28;20403;-48
2023/12/27 00:58:06;;;;;;;15.38;7.90;;;;;;;1.78;100.00;101960.44;5069502;28;20131;-46
2023/12/27 01:00:34;;;;;;;15.13;7.00;;;;;;;1.78;100.00;101957.84;5070996;28;20048;-49
2023/12/27 01:03:04;;;;;;;13.32;7.43;;;;;;;1.75;100.00;101957.91;5070750;28;20048;-45
2023/12/27 01:05:32;;;;;;;15.27;7.38;;;;;;;1.73;100.00;101954.44;5069830;28;20048;-49
2023/12/27 01:08:04;;;;;;;14.35;7.53;;;;;;;1.71;100.00;101952.78;5074623;28;20044;-45
2023/12/27 01:10:32;;;;;;;15.50;7.32;;;;;;;1.67;100.00;101946.75;5074725;28;20047;-57
2023/12/27 01:13:00;;;;;;;13.68;7.35;;;;;;;1.66;100.00;101955.38;5074733;28;20148;-56
2023/12/27 01:15:29;;;;;;;15.95;7.80;;;;;;;1.63;100.00;101958.88;5071796;28;20067;-58
2023/12/27 01:17:57;;;;;;;15.50;8.00;;;;;;;1.59;100.00;101945.97;5070204;28;20669;-46
2023/12/27 01:20:27;;;;;;;14.85;7.60;;;;;;;1.57;100.00;101956.34;5073939;28;20051;-49
2023/12/27 01:22:56;;;;;;;16.88;7.15;;;;;;;1.56;100.00;101956.38;5070881;28;20599;-47
2023/12/27 01:25:27;;;;;;;12.48;7.13;;;;;;;1.53;100.00;101954.66;5070906;28;20045;-50
2023/12/27 01:27:55;;;;;;;14.35;6.45;;;;;;;1.52;100.00;101958.97;5069549;28;20044;-50
2023/12/27 01:30:23;;;;;;;12.02;6.60;;;;;;;1.50;100.00;101950.38;5070495;28;20051;-51
2023/12/27 01:32:52;;;;;;;14.02;6.78;;;;;;;1.48;100.00;101946.91;5073999;28;20131;-45
2023/12/27 01:35:20;;;;;;;13.98;6.80;;;;;;;1.47;100.00;101941.75;5074128;28;20052;-48
2023/12/27 01:37:50;;;;;;;12.27;7.63;;;;;;;1.44;100.00;101955.59;5074364;28;20078;-48
2023/12/27 01:40:19;;;;;;;14.65;6.95;;;;;;;1.44;100.00;101958.19;5074246;28;20098;-56
2023/12/27 01:42:47;;;;;;;11.77;6.75;;;;;;;1.42;100.00;101959.06;5069592;28;20906;-46
2023/12/27 01:45:15;;;;;;;11.88;6.70;;;;;;;1.41;100.00;101958.22;5069961;28;20049;-44
2023/12/27 01:47:44;;;;;;;12.63;6.35;;;;;;;1.40;100.00;101953.91;5070513;28;20048;-55
2023/12/27 01:50:16;;;;;;;13.83;7.10;;;;;;;1.38;100.00;101971.22;5074047;28;20110;-56
2023/12/27 01:52:45;;;;;;;12.77;6.78;;;;;;;1.40;100.00;101960.84;5073822;28;20044;-57
2023/12/27 01:55:17;;;;;;;15.55;7.05;;;;;;;1.39;100.00;101967.75;5071215;28;20040;-57
2023/12/27 01:57:45;;;;;;;13.80;6.17;;;;;;;1.39;100.00;101960.00;5069118;28;20076;-56
2023/12/27 02:00:15;;;;;;;12.20;6.22;;;;;;;1.36;100.00;101957.41;5069863;28;20056;-56
2023/12/27 02:02:44;;;;;;;13.45;6.75;;;;;;;1.36;100.00;101952.22;5068707;28;20041;-48
2023/12/27 02:05:13;;;;;;;12.70;7.00;;;;;;;1.38;100.00;101957.38;5071683;28;20056;-46
2023/12/27 02:07:43;;;;;;;10.65;6.72;;;;;;;1.39;100.00;101954.81;5073663;28;20523;-57
2023/12/27 02:10:15;;;;;;;12.45;6.88;;;;;;;1.39;100.00;101954.81;5073513;28;20068;-45
2023/12/27 02:12:43;;;;;;;12.13;7.28;;;;;;;1.51;100.00;101954.69;5073324;28;20090;-47
2023/12/27 02:15:11;;;;;;;15.55;7.22;;;;;;;1.55;100.00;101946.88;5073398;28;20115;-47
2023/12/27 02:17:40;;;;;;;15.27;7.22;;;;;;;1.50;100.00;101937.41;5073065;28;20388;-49
2023/12/27 02:20:10;;;;;;;13.90;7.28;;;;;;;1.48;100.00;101930.50;5072078;28;20044;-46
2023/12/27 02:22:40;;;;;;;11.63;7.20;;;;;;;1.49;100.00;101933.09;5073341;28;20040;-46
2023/12/27 02:25:10;;;;;;;13.77;7.65;;;;;;;1.50;100.00;101933.94;5073130;28;20083;-49
2023/12/27 02:27:38;;;;;;;13.25;6.45;;;;;;;1.57;100.00;101932.13;5073246;28;20052;-48
2023/12/27 02:30:08;;;;;;;14.93;6.82;;;;;;;1.56;100.00;101933.88;5073138;28;20072;-48
2023/12/27 02:32:36;;;;;;;13.15;7.10;;;;;;;1.56;100.00;101938.22;5070356;28;20362;-49
2023/12/27 02:35:04;;;;;;;12.07;6.47;;;;;;;1.54;100.00;101927.00;5069589;28;20049;-49
2023/12/27 02:37:33;;;;;;;12.38;6.72;;;;;;;1.54;100.00;101925.28;5072933;28;20063;-48
2023/12/27 02:40:03;;;;;;;14.80;6.97;;;;;;;1.55;100.00;101928.72;5071688;28;20098;-48
2023/12/27 02:42:33;;;;;;;11.38;6.60;;;;;;;1.55;100.00;101926.13;5068026;28;20052;-49
2023/12/27 02:45:01;;;;;;;13.05;6.85;;;;;;;1.54;100.00;101924.41;5068983;28;20063;-48
2023/12/27 02:47:29;;;;;;;14.35;6.28;;;;;;;1.53;100.00;101913.19;5071595;28;20403;-46
2023/12/27 02:49:58;;;;;;;14.23;7.00;;;;;;;1.53;100.00;101913.19;5072493;28;20037;-45
2023/12/27 02:52:26;;;;;;;10.40;6.00;;;;;;;1.52;100.00;101912.31;5072446;28;20052;-45
2023/12/27 02:54:55;;;;;;;11.30;6.85;;;;;;;1.52;100.00;101901.94;5072685;28;20496;-47
2023/12/27 02:57:23;;;;;;;11.60;6.40;;;;;;;1.52;100.00;101899.34;5072741;28;20071;-47
2023/12/27 02:59:53;;;;;;;11.63;6.40;;;;;;;1.51;100.00;101905.41;5071354;28;20251;-45
2023/12/27 03:02:24;;;;;;;;;;;;;;;1.51;100.00;101900.22;5073412;28;20040;-45
2023/12/27 03:04:52;;;;;;;11.65;6.07;;;;;;;1.50;100.00;101901.09;5070958;28;20307;-46
2023/12/27 03:07:20;;;;;;;11.10;6.03;;;;;;;1.49;100.00;101891.59;5072179;28;20049;-47
2023/12/27 03:09:48;;;;;;;15.38;6.68;;;;;;;1.51;100.00;101888.97;5072336;28;20518;-46
2023/12/27 03:12:17;;;;;;;11.70;6.47;;;;;;;1.52;100.00;101890.72;5072174;28;20048;-47
2023/12/27 03:14:47;;;;;;;13.45;6.60;;;;;;;1.55;100.00;101875.09;5072408;28;20072;-46
2023/12/27 03:17:17;;;;;;;14.57;8.18;;;;;;;1.61;100.00;101884.56;5072079;28;20040;-45
2023/12/27 03:19:45;;;;;;;14.32;6.90;;;;;;;1.61;100.00;101879.38;5072282;28;20048;-46
2023/12/27 03:22:13;;;;;;;13.18;7.15;;;;;;;1.60;100.00;101870.72;5072052;28;20051;-45
2023/12/27 03:24:44;;;;;;;14.73;8.10;;;;;;;1.64;100.00;101872.41;5071804;28;20392;-46
2023/12/27 03:27:12;;;;;;;16.35;7.68;;;;;;;1.66;100.00;101875.00;5071765;28;20052;-46
2023/12/27 03:29:40;;;;;;;13.73;7.95;;;;;;;1.70;100.00;101874.06;5071448;28;20054;-46
2023/12/27 03:32:08;;;;;;;15.95;7.88;;;;;;;1.73;100.00;101873.19;5072251;28;20143;-47
2023/12/27 03:34:38;;;;;;;16.13;7.72;;;;;;;1.74;100.00;101860.19;5072066;28;20181;-46
2023/12/27 03:37:06;;;;;;;16.77;7.95;;;;;;;1.76;100.00;101865.34;5069363;28;20419;-47
2023/12/27 03:39:34;;;;;;;15.68;7.80;;;;;;;1.77;100.00;101864.50;5068473;28;20136;-45
2023/12/27 03:42:03;;;;;;;11.73;7.60;;;;;;;1.80;100.00;101852.34;5071742;28;20048;-50
2023/12/27 03:44:31;;;;;;;12.23;7.70;;;;;;;1.81;100.00;101859.25;5072040;28;20472;-48
2023/12/27 03:47:02;;;;;;;12.65;7.57;;;;;;;1.85;100.00;101858.34;5068644;28;20519;-48
2023/12/27 03:49:30;;;;;;;14.18;7.05;;;;;;;1.88;100.00;101861.75;5068253;28;20079;-47
2023/12/27 03:52:00;;;;;;;17.17;8.48;;;;;;;1.89;100.00;101863.50;5070895;28;20466;-46
2023/12/27 03:54:28;;;;;;;14.95;7.10;;;;;;;1.91;100.00;101856.53;5071814;28;20052;-50
2023/12/27 03:56:56;;;;;;;14.57;8.25;;;;;;;1.93;100.00;101847.00;5071727;28;20098;-49
2023/12/27 03:59:24;;;;;;;15.45;7.72;;;;;;;1.97;100.00;101848.69;5071753;28;20135;-47
2023/12/27 04:01:52;;;;;;;13.85;7.90;;;;;;;1.98;100.00;101858.19;5071678;28;20128;-47
2023/12/27 04:04:20;;;;;;;15.23;7.43;;;;;;;1.98;100.00;101851.25;5071435;28;20052;-50
2023/12/27 04:06:53;;;;;;;13.00;7.32;;;;;;;2.00;100.00;101862.50;5068084;28;20045;-46
2023/12/27 04:09:23;;;;;;;18.27;8.35;;;;;;;2.01;100.00;101856.38;5067932;28;20052;-46
2023/12/27 04:11:51;;;;;;;12.98;7.07;;;;;;;2.02;100.00;101839.94;5067756;28;20041;-47
2023/12/27 04:14:19;;;;;;;15.30;8.45;;;;;;;2.04;100.00;101839.94;5068866;28;20049;-48
2023/12/27 04:16:47;;;;;;;14.90;7.22;;;;;;;2.07;100.00;101821.72;5071648;28;20119;-47
2023/12/27 04:19:15;;;;;;;13.38;7.90;;;;;;;2.08;100.00;101823.44;5070514;28;20063;-46
2023/12/27 04:21:44;;;;;;;14.48;7.55;;;;;;;2.08;100.00;101820.84;5071657;28;20408;-47
2023/12/27 04:24:12;;;;;;;17.88;7.97;;;;;;;2.11;100.00;101817.34;5070183;28;20598;-45
2023/12/27 04:26:45;;;;;;;18.60;8.27;;;;;;;2.12;100.00;101811.28;5071494;28;20059;-47
2023/12/27 04:29:16;;;;;;;15.68;8.02;;;;;;;2.16;100.00;101811.19;5071564;28;20048;-47
2023/12/27 04:31:44;;;;;;;15.38;9.20;;;;;;;2.19;100.00;101815.50;5071553;28;20063;-46
2023/12/27 04:34:12;;;;;;;15.57;8.25;;;;;;;2.18;100.00;101812.06;5069878;28;20036;-47
2023/12/27 04:36:42;;;;;;;17.98;8.23;;;;;;;2.19;100.00;101811.16;5071335;28;20087;-45
2023/12/27 04:39:10;;;;;;;13.18;8.18;;;;;;;2.19;100.00;101790.38;5071272;28;20060;-47
2023/12/27 04:41:38;;;;;;;16.95;8.70;;;;;;;2.21;100.00;101800.78;5075084;28;20095;-48
2023/12/27 04:44:10;;;;;;;14.90;7.63;;;;;;;2.22;100.00;101791.22;5075153;28;20047;-47
2023/12/27 04:46:38;;;;;;;13.25;8.57;;;;;;;2.23;100.00;101790.38;5074859;28;20647;-48
2023/12/27 04:49:08;;;;;;;16.15;8.07;;;;;;;2.26;100.00;101787.72;5071614;28;20071;-49
2023/12/27 04:51:36;;;;;;;17.02;7.93;;;;;;;2.30;100.00;101784.19;5072876;28;20403;-50
2023/12/27 04:54:05;;;;;;;14.02;7.85;;;;;;;2.29;100.00;101777.28;5074777;28;20045;-46
2023/12/27 04:56:33;;;;;;;15.45;8.15;;;;;;;2.30;100.00;101776.41;5074900;28;20502;-46
2023/12/27 04:59:01;;;;;;;14.57;7.72;;;;;;;2.35;100.00;101769.41;5070542;28;20056;-47
2023/12/27 05:01:33;;;;;;;14.73;8.43;;;;;;;2.34;100.00;101762.47;5070254;28;20048;-48
2023/12/27 05:04:04;;;;;;;17.70;8.40;;;;;;;2.34;100.00;101760.72;5074615;28;20077;-46
2023/12/27 05:06:33;;;;;;;16.67;8.23;;;;;;;2.40;100.00;101762.41;5074653;28;20048;-49
2023/12/27 05:09:04;;;;;;;16.88;7.75;;;;;;;2.43;100.00;101756.31;5074679;28;20040;-47
2023/12/27 05:11:32;;;;;;;20.30;8.48;;;;;;;2.46;100.00;101756.25;5074663;28;20036;-47
2023/12/27 05:14:03;;;;;;;20.40;8.57;;;;;;;2.47;100.00;101760.56;5074560;28;20436;-50
2023/12/27 05:16:33;;;;;;;16.60;8.60;;;;;;;2.50;100.00;101757.91;5074633;28;20375;-48
2023/12/27 05:19:03;;;;;;;17.65;8.32;;;;;;;2.52;100.00;101745.72;5073231;28;20051;-48
2023/12/27 05:21:31;;;;;;;17.23;8.40;;;;;;;2.58;100.00;101749.97;5074624;28;20044;-50
2023/12/27 05:24:00;;;;;;;19.77;8.15;;;;;;;2.61;100.00;101734.34;5074540;28;20074;-50
2023/12/27 05:26:28;;;;;;;18.95;7.50;;;;;;;2.63;100.00;101730.84;5074471;28;20052;-47
2023/12/27 05:28:56;;;;;;;17.08;8.45;;;;;;;2.64;100.00;101729.09;5074117;28;20044;-47
2023/12/27 05:31:24;;;;;;;19.45;9.10;;;;;;;2.70;100.00;101729.00;5074091;28;20045;-47
2023/12/27 05:33:54;;;;;;;17.63;9.35;;;;;;;2.67;100.00;101729.91;5074275;28;20036;-47
2023/12/27 05:36:22;;;;;;;18.33;8.80;;;;;;;2.73;100.00;101725.47;5074473;28;20098;-45
2023/12/27 05:38:51;;;;;;;19.13;8.77;;;;;;;2.73;100.00;101728.94;5074164;28;20048;-46
2023/12/27 05:41:24;;;;;;;16.98;7.93;;;;;;;2.74;100.00;101720.25;5074039;28;20452;-46
2023/12/27 05:43:54;;;;;;;22.20;8.88;;;;;;;2.76;100.00;101728.03;5072808;28;20049;-46
2023/12/27 05:46:22;;;;;;;18.75;8.35;;;;;;;2.77;100.00;101728.00;5073918;28;20044;-47
2023/12/27 05:48:50;;;;;;;19.35;8.38;;;;;;;2.77;100.00;101733.19;5073977;28;20052;-45
2023/12/27 05:51:20;;;;;;;19.05;8.20;;;;;;;2.78;100.00;101729.72;5073356;28;20127;-45
2023/12/27 05:53:48;;;;;;;17.48;8.60;;;;;;;2.80;100.00;101722.72;5073829;28;20049;-47
2023/12/27 05:56:16;;;;;;;21.08;8.07;;;;;;;2.82;100.00;101722.69;5073742;28;20045;-46
2023/12/27 05:58:44;;;;;;;15.95;8.38;;;;;;;2.84;100.00;101708.78;5073818;28;20052;-46
2023/12/27 06:01:13;;;;;;;16.75;8.20;;;;;;;2.87;100.00;101706.13;5073726;28;20526;-46
2023/12/27 06:03:41;;;;;;;21.23;8.40;;;;;;;2.91;100.00;101706.94;5073146;28;20060;-45
2023/12/27 06:06:10;;;;;;;15.93;8.63;;;;;;;2.92;100.00;101705.19;5072456;28;20044;-45
2023/12/27 06:08:39;;;;;;;18.80;8.05;;;;;;;2.99;100.00;101704.19;5073438;28;20119;-46
2023/12/27 06:11:11;;;;;;;18.42;8.63;;;;;;;3.01;100.00;101699.81;5073461;28;20131;-47
2023/12/27 06:13:41;;;;;;;16.48;8.77;;;;;;;3.00;100.00;101698.09;5073401;28;20047;-47
2023/12/27 06:16:10;;;;;;;17.17;8.27;;;;;;;3.03;100.00;101685.06;5073141;28;20102;-46
2023/12/27 06:18:38;;;;;;;18.30;8.13;;;;;;;3.06;100.00;101694.53;5073002;28;20483;-47
2023/12/27 06:21:07;;;;;;;14.45;8.25;;;;;;;3.05;100.00;101685.88;5071898;28;20127;-46
2023/12/27 06:23:35;;;;;;;20.90;8.85;;;;;;;3.06;100.00;101682.38;5072122;28;20044;-46
2023/12/27 06:26:06;;;;;;;21.42;8.20;;;;;;;3.09;100.00;101687.50;5071933;28;20059;-49
2023/12/27 06:28:34;;;;;;;16.60;8.45;;;;;;;3.10;100.00;101686.63;5071660;28;20044;-48
2023/12/27 06:31:02;;;;;;;18.10;8.05;;;;;;;3.13;100.00;101681.38;5069842;28;20056;-48
2023/12/27 06:33:31;;;;;;;18.70;8.55;;;;;;;3.19;100.00;101678.66;5065253;28;20055;-48
2023/12/27 06:35:59;;;;;;;18.73;7.90;;;;;;;3.19;100.00;101669.97;5070648;28;20040;-51
2023/12/27 06:38:27;;;;;;;19.17;8.93;;;;;;;3.22;100.00;101665.59;5072983;28;20090;-50
2023/12/27 06:40:56;;;;;;;15.25;7.75;;;;;;;3.27;100.00;101667.22;5071470;28;20515;-49
2023/12/27 06:43:25;;;;;;;16.85;8.00;;;;;;;3.30;100.00;101656.75;5072788;28;20040;-49
2023/12/27 06:45:54;;;;;;;23.90;9.00;;;;;;;3.31;100.00;101654.16;5072744;28;20048;-50
2023/12/27 06:48:24;;;;;;;22.75;9.02;;;;;;;3.45;100.00;101638.22;5072528;28;20044;-48
2023/12/27 06:50:52;;;;;;;26.73;11.02;;;;;;;3.53;100.00;101644.13;5072386;28;20087;-45
2023/12/27 06:53:20;;;;;;;24.15;10.27;;;;;;;3.54;100.00;101637.16;5072247;28;20040;-49
2023/12/27 06:55:48;;;;;;;18.80;9.52;;;;;;;3.58;100.00;101630.16;5072435;28;20041;-46
2023/12/27 06:58:17;;;;;;;23.42;9.98;;;;;;;3.60;100.00;101626.63;5072361;28;20051;-48
2023/12/27 07:00:46;;;;;;;25.38;9.85;;;;;;;3.63;100.00;101618.72;5072641;28;20055;-45
2023/12/27 07:03:15;;;;;;;22.52;8.75;;;;;;;3.65;100.00;101623.91;5069791;28;20056;-46
2023/12/27 07:05:46;;;;;;;25.55;9.10;;;;;;;3.64;100.00;101614.38;5069348;28;20152;-45
2023/12/27 07:08:16;;;;;;;26.73;9.80;;;;;;;3.69;100.00;101612.53;5071804;28;20076;-46
2023/12/27 07:10:44;;;;;;;21.50;8.93;;;;;;;3.72;100.00;101607.25;5072338;28;20044;-47
2023/12/27 07:13:13;;;;;;;25.25;10.13;;;;;;;3.78;100.00;101607.09;5072503;28;20048;-47
2023/12/27 07:15:41;;;;;;;26.83;9.93;;;;;;;3.80;100.00;101607.06;5072064;28;20044;-47
2023/12/27 07:18:11;;;;;;;19.65;9.50;;;;;;;3.80;100.00;101614.88;5072043;28;20059;-48
2023/12/27 07:20:39;;;;;;;22.20;8.63;;;;;;;3.84;100.00;101606.94;5072143;28;20396;-47
2023/12/27 07:23:08;;;;;;;24.85;9.75;;;;;;;3.87;100.00;101601.69;5070816;28;20062;-48
2023/12/27 07:25:37;;;;;;;24.20;10.30;;;;;;;3.92;100.00;101601.53;5071731;28;20045;-46
2023/12/27 07:28:06;;;;;;;25.23;9.15;;;;;;;3.92;100.00;101595.50;5071593;28;20503;-49
2023/12/27 07:30:34;;;;;;;16.88;8.10;;;;;;;3.93;100.00;101592.84;5072048;28;20466;-47
2023/12/27 07:33:03;;;;;;;20.85;9.48;;;;;;;3.95;100.00;101588.44;5071992;28;20039;-47
2023/12/27 07:35:33;;;;;;;17.42;8.30;;;;;;;3.93;100.00;101585.03;5072033;28;20609;-48
2023/12/27 07:38:01;;;;;;;22.73;8.95;;;;;;;3.99;100.00;101581.44;5070611;28;20055;-47
2023/12/27 07:40:32;;;;;;;23.27;9.15;;;;;;;4.01;100.00;101582.25;5070049;28;20548;-47
2023/12/27 07:43:05;;;;;;;22.63;8.68;;;;;;;4.02;100.00;101579.59;5067407;28;20048;-47
2023/12/27 07:45:34;;;;;;;23.83;9.13;;;;;;;4.01;100.00;101583.09;5070765;28;20040;-46
2023/12/27 07:48:02;;;;;;;22.45;8.48;;;;;;;4.03;100.00;101575.25;5071619;28;20054;-47
2023/12/27 07:50:31;;;;;;;20.40;9.30;;;;;;;4.03;100.00;101576.09;5071859;28;20048;-48
2023/12/27 07:53:00;;;;;;;17.75;7.88;;;;;;;4.07;100.00;101572.50;5071668;28;20058;-46
2023/12/27 07:55:28;;;;;;;18.90;8.13;;;;;;;4.11;100.00;101573.28;5070155;28;20043;-46
2023/12/27 07:57:56;;;;;;;24.33;9.07;;;;;;;4.12;100.00;101584.56;5067820;28;20415;-47
2023/12/27 08:00:25;;;;;;;24.58;7.82;;;;;;;4.11;100.00;101581.09;5067354;28;20121;-46
2023/12/27 08:02:56;;;;;;;24.60;8.50;;;;;;;4.16;100.00;101587.06;5067468;28;20117;-49
2023/12/27 08:05:27;;;;;;;24.25;9.38;;;;;;;4.18;100.00;101569.63;5069600;28;20069;-49
2023/12/27 08:07:56;;;;;;;26.45;8.82;;;;;;;4.18;100.00;101576.59;5071475;28;20053;-48
2023/12/27 08:10:26;;;;;;;20.55;8.63;;;;;;;4.22;100.00;101575.63;5071646;28;20051;-48
2023/12/27 08:12:54;;;;;;;22.23;7.97;;;;;;;4.23;100.00;101570.34;5071503;28;20047;-46
2023/12/27 08:15:23;;;;;;;22.75;8.23;;;;;;;4.24;100.00;101573.84;5072858;28;20136;-49
2023/12/27 08:17:51;;;;;;;27.52;8.75;;;;;;;4.28;100.00;101571.97;5075572;28;20052;-46
2023/12/27 08:20:19;;;;;;;21.48;8.27;;;;;;;4.28;100.00;101565.03;5075488;28;20044;-46
2023/12/27 08:22:52;;;;;;;19.20;8.65;;;;;;;4.31;100.00;101571.88;5074354;28;20072;-46
2023/12/27 08:25:20;;;;;;;16.52;9.25;;;;;;;4.33;100.00;101555.34;5075354;28;20067;-46
2023/12/27 08:27:50;;;;;;;19.65;8.57;;;;;;;4.34;100.00;101558.81;5075400;28;20102;-48
2023/12/27 08:30:18;;;;;;;24.48;8.85;;;;;;;4.34;100.00;101553.59;5075292;28;20147;-45
2023/12/27 08:32:47;;;;;;;23.95;9.25;;;;;;;4.32;100.00;101553.66;5075339;28;20040;-51
2023/12/27 08:35:15;;;;;;;19.95;8.98;;;;;;;4.39;100.00;101559.50;5074019;28;20050;-47
2023/12/27 08:37:47;;;;;;;21.10;9.23;;;;;;;4.42;100.00;101555.97;5075299;28;20036;-46
2023/12/27 08:40:16;;;;;;;19.83;9.30;;;;;;;4.45;100.00;101556.75;5074797;28;20044;-48
2023/12/27 08:42:44;;;;;;;23.20;9.88;;;;;;;4.44;100.00;101544.63;5070947;28;20514;-47
2023/12/27 08:45:14;;;;;;;17.85;9.30;;;;;;;4.52;100.00;101537.44;5071143;28;20048;-46
2023/12/27 08:47:43;;;;;;;22.35;9.30;;;;;;;4.52;100.00;101534.84;5074996;28;20059;-49
2023/12/27 08:50:12;;;;;;;18.58;9.75;;;;;;;4.50;100.00;101541.84;5074974;28;20523;-46
2023/12/27 08:52:43;;;;;;;23.25;10.93;;;;;;;4.53;100.00;101533.94;5075024;28;20048;-48
2023/12/27 08:55:12;;;;;;;21.08;9.63;;;;;;;4.55;100.00;101531.28;5074694;28;20522;-46
2023/12/27 08:57:40;;;;;;;19.80;10.77;;;;;;;4.56;100.00;101519.97;5074496;28;20044;-48
2023/12/27 09:00:10;;;;;;;22.80;10.55;;;;;;;4.56;100.00;101507.78;5074604;28;20522;-50
2023/12/27 09:02:40;;;;;;;20.00;10.40;;;;;;;4.61;100.00;101506.81;5074597;28;20049;-49
2023/12/27 09:05:09;;;;;;;20.52;10.27;;;;;;;4.59;100.00;101496.44;5071367;28;20446;-50
2023/12/27 09:07:40;;;;;;;19.08;10.75;;;;;;;4.61;100.00;101493.78;5071481;28;20049;-49
2023/12/27 09:10:10;;;;;;;23.92;11.13;;;;;;;4.64;100.00;101483.28;5071509;28;20146;-47
2023/12/27 09:12:39;;;;;;;20.83;10.82;;;;;;;4.68;100.00;101482.28;5071680;28;20052;-49
2023/12/27 09:15:08;;;;;;;21.95;11.98;;;;;;;4.75;100.00;101483.81;5070702;28;20045;-50
2023/12/27 09:17:36;;;;;;;17.95;10.25;;;;;;;4.79;100.00;101475.00;5072705;28;20446;-48
2023/12/27 09:20:08;;;;;;;18.15;9.95;;;;;;;4.85;100.00;101476.53;5074070;28;20403;-47
2023/12/27 09:22:36;;;;;;;18.93;10.33;;;;;;;4.88;100.00;101482.53;5074012;28;20051;-47
2023/12/27 09:25:05;;;;;;;19.27;10.45;;;;;;;4.93;100.00;101465.88;5074209;28;20506;-46
2023/12/27 09:27:36;;;;;;;18.27;9.60;;;;;;;4.94;100.00;101460.63;5068997;28;20400;-45
2023/12/27 09:30:05;;;;;;;18.27;10.45;;;;;;;5.00;100.00;101462.19;5070205;28;20507;-46
2023/12/27 09:32:33;;;;;;;18.67;10.18;;;;;;;5.07;100.00;101463.69;5074016;28;20117;-47
2023/12/27 09:35:02;;;;;;;18.95;10.70;;;;;;;5.13;100.00;101452.22;5073752;28;20051;-47
2023/12/27 09:37:32;;;;;;;17.15;9.73;;;;;;;5.10;100.00;101455.78;5074020;28;20052;-46
2023/12/27 09:40:00;;;;;;;18.35;10.65;;;;;;;5.16;100.00;101458.16;5074198;28;20048;-47
2023/12/27 09:42:32;;;;;;;16.67;10.32;;;;;;;5.19;100.00;101459.81;5074013;28;20055;-47
2023/12/27 09:45:04;;;;;;;22.00;10.80;;;;;;;5.14;100.00;101460.00;5072581;28;20087;-48
2023/12/27 09:47:38;;;;;;;16.98;10.82;;;;;;;5.19;100.00;101450.25;5073990;28;20090;-48
2023/12/27 09:50:07;;;;;;;18.27;10.48;;;;;;;5.23;100.00;101451.00;5072563;28;20052;-50
2023/12/27 09:52:39;;;;;;;18.73;10.43;;;;;;;5.23;100.00;101438.81;5073855;28;20044;-46
2023/12/27 09:55:08;;;;;;;21.95;13.70;;;;;;;5.30;100.00;101443.81;5073893;28;20094;-47
2023/12/27 09:57:36;;;;;;;21.35;12.25;;;;;;;5.31;100.00;101440.31;5073745;28;20486;-47
2023/12/27 10:00:08;;;;;;;21.33;11.73;;;;;;;5.31;100.00;101435.09;5073668;28;20132;-47
2023/12/27 10:02:41;;;;;;;19.00;11.57;;;;;;;5.42;100.00;101417.31;5073718;28;20496;-45
2023/12/27 10:05:16;;;;;;;22.10;11.93;;;;;;;5.46;100.00;101426.75;5072011;28;20236;-47
2023/12/27 10:07:46;;;;;;;19.83;11.85;;;;;;;5.51;100.00;101422.22;5073617;28;20075;-48
2023/12/27 10:10:18;;;;;;;19.40;12.80;;;;;;;5.55;100.00;101416.00;5072789;28;20102;-47
2023/12/27 10:12:55;;;;;;;21.17;12.98;;;;;;;5.63;100.00;101409.66;5069446;28;20139;-46
2023/12/27 10:15:23;;;;;;;21.52;12.00;;;;;;;5.73;100.00;101408.44;5069494;28;20083;-46
2023/12/27 10:17:52;;;;;;;19.50;11.95;;;;;;;5.76;100.00;101408.31;5072499;28;20106;-47
2023/12/27 10:20:36;;;;;;;19.70;12.23;;;;;;;5.81;100.00;101419.44;5073140;28;20119;-47
2023/12/27 10:23:09;;;;;;;19.67;12.43;;;;;;;5.84;100.00;101393.22;5071609;28;20047;-45
2023/12/27 10:25:40;;;;;;;18.58;12.55;;;;;;;5.84;100.00;101395.00;5071403;28;20411;-47
2023/12/27 10:28:09;;;;;;;18.45;11.98;;;;;;;5.93;100.00;101379.84;5073001;28;20113;-46
2023/12/27 10:30:38;;;;;;;21.13;12.00;;;;;;;6.00;100.00;101383.09;5073003;28;20529;-46
2023/12/27 10:33:07;;;;;;;19.60;12.05;;;;;;;5.99;100.00;101378.78;5072969;28;20047;-48
2023/12/27 10:35:38;;;;;;;19.83;12.20;;;;;;;6.01;100.00;101365.66;5073050;28;20496;-47
2023/12/27 10:38:07;;;;;;;18.75;11.95;;;;;;;5.99;100.00;101363.13;5072546;28;20032;-49
2023/12/27 10:40:39;;;;;;;17.63;11.75;;;;;;;6.02;100.00;101363.00;5073029;28;20044;-47
2023/12/27 10:43:07;;;;;;;17.83;11.77;;;;;;;6.10;100.00;101362.72;5068086;28;20072;-46
2023/12/27 10:45:37;;;;;;;20.70;11.73;;;;;;;6.10;100.00;101341.81;5068484;28;20048;-45
2023/12/27 10:48:10;;;;;;;20.40;11.18;;;;;;;6.07;100.00;101361.06;5070760;28;20055;-45
2023/12/27 10:50:43;;;;;;;18.75;10.90;;;;;;;6.13;100.00;101359.97;5072555;28;20463;-47
2023/12/27 10:53:18;;;;;;;17.58;10.55;;;;;;;6.15;100.00;101362.53;5072619;28;20052;-47
2023/12/27 10:55:49;;;;;;;18.85;12.02;;;;;;;6.19;100.00;101351.91;5071735;28;20105;-45
2023/12/27 10:58:22;;;;;;;20.15;11.32;;;;;;;6.23;100.00;101350.03;5067876;28;20068;-47
2023/12/27 11:00:51;;;;;;;18.35;10.70;;;;;;;6.19;100.00;101338.84;5070646;28;20138;-47
2023/12/27 11:03:20;;;;;;;18.55;10.32;;;;;;;6.20;100.00;101335.34;5068814;28;20048;-46
2023/12/27 11:05:50;;;;;;;16.75;9.95;;;;;;;6.20;100.00;101332.72;5069325;28;20041;-46
2023/12/27 11:08:20;;;;;;;17.52;9.70;;;;;;;6.24;100.00;101317.78;5068969;28;20433;-47
2023/12/27 11:10:50;;;;;;;14.95;9.20;;;;;;;6.31;100.00;101305.31;5068787;28;20404;-45
2023/12/27 11:13:21;;;;;;;15.63;8.40;;;;;;;6.39;100.00;101314.56;5068206;28;20052;-46
2023/12/27 11:15:53;;;;;;;14.25;8.10;;;;;;;6.39;100.00;101303.25;5069093;28;20669;-46
2023/12/27 11:18:22;;;;;;;16.05;7.65;;;;;;;6.42;100.00;101301.38;5071834;28;20062;-45
2023/12/27 11:20:54;;;;;;;13.95;7.78;;;;;;;6.42;100.00;101288.31;5071984;28;20554;-45
2023/12/27 11:23:24;;;;;;;14.15;7.93;;;;;;;6.47;100.00;101288.09;5072159;28;20044;-49
2023/12/27 11:25:56;;;;;;;14.23;7.65;;;;;;;6.48;100.00;101279.38;5071966;28;20044;-46